aviador You're here:

LFRO Decoded Metar

LANNION in FRANCE
Report Time2017-09-20 16:00:00
UTC Time2017-09-20 16:30:54
Flight Rules vfr VFR
Wind190° at 12 kt
W.Decomp.*RWY 11: 1.7 kt HW 11.9 kt RCW
W.Rank190° ranks 8
Current wind is above 190° avg. (8.0)
Visibility9999 m
Phenomena:N/A
Clouds:Few 032 Hf
Scattered 044 Hf
Broken 050 Hf
Expected CloudBase > 2,400 ft AGL from Temp-Dew spread
Ceiling5,000 ft
Temp17°C (ISA +3)
Dew Point11°C (68% RH)
AAT13.0°C
QNH1018 hPa
Density Alt604 ft
Elevation292 ft
Report Wrong Elevation
Raw Report
LFRO 201600Z AUTO 19012KT 9999 FEW032 SCT044 BKN050 17/11 Q1018
NOSIG=

Extra information for LFRO:More info

Metar Taf Metar & Taf Last 4 Metars F.Rules Stats Wind Profile Meteogram Temp Stats Airport Information Weather charts Add Link Nearby VenuesMetar ALERT Operation Metar Decoded Social comments